Sam Holmes — WDH8629 — position and weather

sailwx.info

Track history (hours):
 
Tides and Currents Weather Stations Pressure Air Temp Water Temp Dewpoint Dewpoint Depression Visibility Wind Speed Wind Dir Waves Ship Positions

Sam Holmes

Owner: NYCL Acquisition LLC, Brooklyn, NY. More information available from US FCC via Universal Licensing System and Coast Guard Vessel Documentation Center.

Last reported at 2018-Apr-22 16:00 UTC. Time now 2018-Apr-22 16:27 UTC.
Position N 40°41' W 074°02'.

Length 21 m.

Type: Passenger vessel. MMSI: 367659970.

Date/timePositionNaut miles runAvg speedWind from/ knotsBaromVisibWave heightAir tempDewpointWater temp
2018-Apr-22 16:00N 40°41' W 074°02'2 3.9
2018-Apr-22 15:30N 40°42' W 074°00'0 0.0
2018-Apr-22 15:00N 40°42' W 074°00'2 4.3
2018-Apr-22 14:30N 40°41' W 074°03'2 4.4
2018-Apr-22 14:00N 40°42' W 074°00'2 4.1
2018-Apr-22 13:30N 40°40' W 074°01'0 0.0
2018-Apr-22 13:00N 40°40' W 074°01'0 0.0
2018-Apr-22 00:47N 40°40' W 074°01'0 0.3
2018-Apr-22 00:30N 40°40' W 074°01'2 4.3
2018-Apr-22 00:00N 40°42' W 074°00'2 4.4
2018-Apr-21 23:31N 40°41' W 074°03'2 4.4
2018-Apr-21 23:00N 40°42' W 074°00'0 0.0
2018-Apr-21 22:30N 40°42' W 074°00'0 0.0
2018-Apr-21 22:00N 40°42' W 074°00'2 4.3
2018-Apr-21 21:30N 40°41' W 074°03'2 4.3
2018-Apr-21 21:00N 40°42' W 074°00'0 0.8
2018-Apr-21 20:30N 40°42' W 073°60'2 3.4
2018-Apr-21 20:00N 40°43' W 074°01'1 2.9
2018-Apr-21 19:31N 40°42' W 074°00'2 4.1
2018-Apr-21 19:00N 40°41' W 074°03'2 4.1
2018-Apr-21 18:30N 40°42' W 074°00'0 0.0
2018-Apr-21 18:00N 40°42' W 074°00'0 0.9
2018-Apr-21 17:31N 40°42' W 074°00'1 2.5
2018-Apr-21 17:00N 40°43' W 074°01'1 2.3
2018-Apr-21 16:30N 40°42' W 073°60'2 4.0
2018-Apr-21 16:00N 40°41' W 074°02'2 3.7
2018-Apr-21 15:30N 40°42' W 074°00'0 0.0
2018-Apr-21 15:01N 40°42' W 074°00'2 4.4
2018-Apr-21 14:30N 40°41' W 074°03'2 4.4
2018-Apr-21 14:00N 40°42' W 074°00'2 4.1
2018-Apr-21 13:30N 40°40' W 074°01'0 0.0
2018-Apr-21 13:00N 40°40' W 074°01'0 0.0
2018-Apr-21 00:04N 40°40' W 074°01'0 0.0
2018-Apr-21 00:01N 40°40' W 074°01'0 0.4
2018-Apr-20 23:30N 40°40' W 074°01'1 1.5
2018-Apr-20 23:00N 40°41' W 074°01'1 2.6
2018-Apr-20 22:30N 40°42' W 074°00'2 3.3
2018-Apr-20 22:00N 40°41' W 074°01'1 1.2
2018-Apr-20 21:30N 40°40' W 074°01'2 4.1
2018-Apr-20 21:00N 40°42' W 074°00'2 4.0
2018-Apr-20 20:30N 40°40' W 074°01'1 1.3
2018-Apr-20 20:00N 40°41' W 074°01'1 2.9
2018-Apr-20 19:30N 40°42' W 074°00'2 3.9
2018-Apr-20 19:01N 40°40' W 074°01'1 2.2
2018-Apr-20 18:31N 40°41' W 074°01'1 0.3
2018-Apr-20 14:54N 40°40' W 074°01'0 0.0
2018-Apr-20 14:22N 40°40' W 074°01'0 0.0
2018-Apr-20 14:00N 40°40' W 074°01'  
2018-Apr-17 22:19N 40°40' W 074°01'0 0.0
2018-Apr-17 22:00N 40°40' W 074°01'2 3.6
2018-Apr-17 21:30N 40°42' W 074°01'2 4.3
2018-Apr-17 21:00N 40°44' W 074°01'2 4.3
2018-Apr-17 20:30N 40°42' W 074°00'3 6.9
2018-Apr-17 20:00N 40°46' W 074°00'4 7.0
2018-Apr-17 19:30N 40°42' W 073°60'3 5.5
2018-Apr-17 19:00N 40°45' W 074°01'4 7.7
2018-Apr-17 18:30N 40°41' W 074°03'2 3.9
2018-Apr-17 18:00N 40°42' W 074°00'3 6.6
2018-Apr-17 17:30N 40°45' W 074°01'3 5.9
2018-Apr-17 16:59N 40°42' W 074°00'3 7.1
2018-Apr-17 16:30N 40°46' W 074°00'4 7.1
2018-Apr-17 16:01N 40°42' W 073°60'4 6.9
2018-Apr-17 15:30N 40°46' W 074°00'5 9.5
2018-Apr-17 15:00N 40°41' W 074°02'1 2.4
2018-Apr-17 14:30N 40°42' W 074°01'4 8.0
2018-Apr-17 14:00N 40°46' W 074°00'510.5
2018-Apr-17 13:30N 40°41' W 074°02'0 0.0
2018-Apr-16 00:44N 40°40' W 074°01'0 0.1
2018-Apr-16 00:30N 40°40' W 074°01'2 4.1
2018-Apr-16 00:00N 40°42' W 074°00'2 4.3
2018-Apr-15 23:30N 40°41' W 074°03'2 4.2
2018-Apr-15 22:59N 40°42' W 074°00'0 0.0
2018-Apr-15 22:30N 40°42' W 074°00'0 0.0
2018-Apr-15 22:00N 40°42' W 074°00'2 4.2
2018-Apr-15 21:31N 40°41' W 074°03'2 4.0
2018-Apr-15 21:00N 40°42' W 074°00'0 0.4
2018-Apr-15 20:30N 40°42' W 073°60'1 2.8
2018-Apr-15 20:01N 40°43' W 074°01'1 2.4
2018-Apr-15 19:31N 40°42' W 074°00'2 4.2
2018-Apr-15 19:01N 40°41' W 074°03'2 4.2
2018-Apr-15 18:30N 40°42' W 074°00'0 0.2
2018-Apr-15 18:00N 40°42' W 074°00'0 0.4
2018-Apr-15 17:30N 40°42' W 074°00'2 3.2
2018-Apr-15 17:00N 40°43' W 074°02'1 2.8
2018-Apr-15 16:30N 40°42' W 074°00'2 4.1
2018-Apr-15 16:00N 40°41' W 074°03'2 4.1
2018-Apr-15 15:30N 40°42' W 074°00'0 0.0
2018-Apr-15 15:00N 40°42' W 074°00'2 4.4
2018-Apr-15 14:30N 40°41' W 074°03'2 4.4
2018-Apr-15 14:00N 40°42' W 074°00'2 4.1
2018-Apr-15 13:30N 40°40' W 074°01'0 0.0
2018-Apr-15 13:01N 40°40' W 074°01'0 0.0
2018-Apr-15 00:34N 40°40' W 074°01'0 0.0
2018-Apr-15 00:30N 40°40' W 074°01'2 4.1
2018-Apr-15 00:00N 40°42' W 074°00'1 3.0
2018-Apr-14 23:30N 40°42' W 074°02'1 3.0
2018-Apr-14 23:00N 40°42' W 074°00'0 0.1
2018-Apr-14 22:30N 40°42' W 074°00'0 0.1
2018-Apr-14 22:00N 40°42' W 074°00'1 2.8
2018-Apr-14 21:30N 40°42' W 074°02'1 2.7
2018-Apr-14 21:00N 40°42' W 074°00'2 4.0
2018-Apr-14 20:30N 40°41' W 074°02'1 2.4
2018-Apr-14 19:59N 40°42' W 074°01'1 1.6
2018-Apr-14 19:30N 40°42' W 074°00'1 2.9
2018-Apr-14 19:00N 40°42' W 074°02'2 3.0
2018-Apr-14 18:29N 40°42' W 074°00'0 0.1
2018-Apr-14 18:00N 40°42' W 074°00'2 4.2
2018-Apr-14 17:31N 40°41' W 074°03'1 2.8
2018-Apr-14 17:00N 40°42' W 074°01'1 1.4
2018-Apr-14 16:30N 40°42' W 074°00'1 2.6
2018-Apr-14 16:00N 40°43' W 074°02'1 2.5
2018-Apr-14 15:30N 40°42' W 074°00'0 0.0
2018-Apr-14 15:00N 40°42' W 074°00'1 2.6
2018-Apr-14 14:30N 40°42' W 074°02'1 2.6
2018-Apr-14 14:00N 40°42' W 074°00'2 4.1
2018-Apr-14 13:30N 40°40' W 074°01'0 0.0
2018-Apr-14 13:00N 40°40' W 074°01'0 0.0
2018-Apr-14 00:21N 40°40' W 074°01'2 5.9
2018-Apr-14 00:00N 40°42' W 074°00'1 2.6
2018-Apr-13 23:30N 40°43' W 074°02'1 2.6
2018-Apr-13 23:00N 40°42' W 074°00'0 0.0
2018-Apr-13 22:30N 40°42' W 074°00'0 0.1
2018-Apr-13 22:00N 40°42' W 074°00'1 2.7
2018-Apr-13 21:30N 40°42' W 074°02'1 2.6
2018-Apr-13 21:00N 40°42' W 074°00'2 4.1
2018-Apr-13 20:30N 40°41' W 074°02'2 4.2
2018-Apr-13 20:00N 40°42' W 073°60'0 0.2
2018-Apr-13 19:30N 40°42' W 074°00'1 2.9
2018-Apr-13 19:00N 40°42' W 074°02'1 2.8
2018-Apr-13 18:30N 40°42' W 074°00'0 0.2
2018-Apr-13 18:00N 40°42' W 074°00'2 3.8
2018-Apr-13 17:30N 40°41' W 074°02'1 2.2
2018-Apr-13 17:00N 40°42' W 074°01'1 1.6
2018-Apr-13 16:30N 40°42' W 074°00'2 4.3
2018-Apr-13 16:00N 40°41' W 074°03'2 4.4
2018-Apr-13 15:30N 40°42' W 074°00'0 0.2
2018-Apr-13 15:01N 40°42' W 074°00'2 3.7
2018-Apr-13 14:30N 40°42' W 074°02'2 3.6
2018-Apr-13 14:00N 40°42' W 074°00'0 0.0
2018-Apr-13 13:30N 40°42' W 074°00'2 0.2
2018-Apr-13 00:21N 40°40' W 074°01'2 6.0
2018-Apr-13 00:00N 40°42' W 074°00'1 2.8
2018-Apr-12 23:30N 40°42' W 074°02'1 2.8
2018-Apr-12 23:00N 40°42' W 074°00'0 0.0
2018-Apr-12 22:30N 40°42' W 074°00'0 0.0
2018-Apr-12 22:00N 40°42' W 074°00'2 3.2
2018-Apr-12 21:31N 40°42' W 074°02'2 3.1
2018-Apr-12 21:00N 40°42' W 074°00'1 2.8
2018-Apr-12 20:31N 40°42' W 074°02'1 1.3
2018-Apr-12 20:00N 40°42' W 074°01'1 1.5
2018-Apr-12 19:30N 40°42' W 074°00'1 2.6
2018-Apr-12 19:00N 40°42' W 074°02'1 2.6
2018-Apr-12 18:30N 40°42' W 074°00'0 0.0
2018-Apr-12 18:00N 40°42' W 074°00'1 2.8
2018-Apr-12 17:30N 40°42' W 074°02'1 1.2
2018-Apr-12 17:00N 40°42' W 074°01'1 1.7
2018-Apr-12 16:30N 40°42' W 074°00'  
Track history (hours):
 
Tides and Currents Weather Stations Pressure Air Temp Water Temp Dewpoint Dewpoint Depression Visibility Wind Speed Wind Dir Waves Ship Positions

Sam Holmes

Owner: NYCL Acquisition LLC, Brooklyn, NY. More information available from US FCC via Universal Licensing System and Coast Guard Vessel Documentation Center.

Last reported at 2018-Apr-22 16:00 UTC. Time now 2018-Apr-22 16:27 UTC.
Position N 40°41' W 074°02'.

Length 21 m.

Type: Passenger vessel. MMSI: 367659970.

Date/timePositionNaut miles runAvg speedWind from/ knotsBaromVisibWave heightAir tempDewpointWater temp
2018-Apr-22 16:00N 40°41' W 074°02'2 3.9
2018-Apr-22 15:30N 40°42' W 074°00'0 0.0
2018-Apr-22 15:00N 40°42' W 074°00'2 4.3
2018-Apr-22 14:30N 40°41' W 074°03'2 4.4
2018-Apr-22 14:00N 40°42' W 074°00'2 4.1
2018-Apr-22 13:30N 40°40' W 074°01'0 0.0
2018-Apr-22 13:00N 40°40' W 074°01'0 0.0
2018-Apr-22 00:47N 40°40' W 074°01'0 0.3
2018-Apr-22 00:30N 40°40' W 074°01'2 4.3
2018-Apr-22 00:00N 40°42' W 074°00'2 4.4
2018-Apr-21 23:31N 40°41' W 074°03'2 4.4
2018-Apr-21 23:00N 40°42' W 074°00'0 0.0
2018-Apr-21 22:30N 40°42' W 074°00'0 0.0
2018-Apr-21 22:00N 40°42' W 074°00'2 4.3
2018-Apr-21 21:30N 40°41' W 074°03'2 4.3
2018-Apr-21 21:00N 40°42' W 074°00'0 0.8
2018-Apr-21 20:30N 40°42' W 073°60'2 3.4
2018-Apr-21 20:00N 40°43' W 074°01'1 2.9
2018-Apr-21 19:31N 40°42' W 074°00'2 4.1
2018-Apr-21 19:00N 40°41' W 074°03'2 4.1
2018-Apr-21 18:30N 40°42' W 074°00'0 0.0
2018-Apr-21 18:00N 40°42' W 074°00'0 0.9
2018-Apr-21 17:31N 40°42' W 074°00'1 2.5
2018-Apr-21 17:00N 40°43' W 074°01'1 2.3
2018-Apr-21 16:30N 40°42' W 073°60'2 4.0
2018-Apr-21 16:00N 40°41' W 074°02'2 3.7
2018-Apr-21 15:30N 40°42' W 074°00'0 0.0
2018-Apr-21 15:01N 40°42' W 074°00'2 4.4
2018-Apr-21 14:30N 40°41' W 074°03'2 4.4
2018-Apr-21 14:00N 40°42' W 074°00'2 4.1
2018-Apr-21 13:30N 40°40' W 074°01'0 0.0
2018-Apr-21 13:00N 40°40' W 074°01'0 0.0
2018-Apr-21 00:04N 40°40' W 074°01'0 0.0
2018-Apr-21 00:01N 40°40' W 074°01'0 0.4
2018-Apr-20 23:30N 40°40' W 074°01'1 1.5
2018-Apr-20 23:00N 40°41' W 074°01'1 2.6
2018-Apr-20 22:30N 40°42' W 074°00'2 3.3
2018-Apr-20 22:00N 40°41' W 074°01'1 1.2
2018-Apr-20 21:30N 40°40' W 074°01'2 4.1
2018-Apr-20 21:00N 40°42' W 074°00'2 4.0
2018-Apr-20 20:30N 40°40' W 074°01'1 1.3
2018-Apr-20 20:00N 40°41' W 074°01'1 2.9
2018-Apr-20 19:30N 40°42' W 074°00'2 3.9
2018-Apr-20 19:01N 40°40' W 074°01'1 2.2
2018-Apr-20 18:31N 40°41' W 074°01'1 0.3
2018-Apr-20 14:54N 40°40' W 074°01'0 0.0
2018-Apr-20 14:22N 40°40' W 074°01'0 0.0
2018-Apr-20 14:00N 40°40' W 074°01'  
2018-Apr-17 22:19N 40°40' W 074°01'0 0.0
2018-Apr-17 22:00N 40°40' W 074°01'2 3.6
2018-Apr-17 21:30N 40°42' W 074°01'2 4.3
2018-Apr-17 21:00N 40°44' W 074°01'2 4.3
2018-Apr-17 20:30N 40°42' W 074°00'3 6.9
2018-Apr-17 20:00N 40°46' W 074°00'4 7.0
2018-Apr-17 19:30N 40°42' W 073°60'3 5.5
2018-Apr-17 19:00N 40°45' W 074°01'4 7.7
2018-Apr-17 18:30N 40°41' W 074°03'2 3.9
2018-Apr-17 18:00N 40°42' W 074°00'3 6.6
2018-Apr-17 17:30N 40°45' W 074°01'3 5.9
2018-Apr-17 16:59N 40°42' W 074°00'3 7.1
2018-Apr-17 16:30N 40°46' W 074°00'4 7.1
2018-Apr-17 16:01N 40°42' W 073°60'4 6.9
2018-Apr-17 15:30N 40°46' W 074°00'5 9.5
2018-Apr-17 15:00N 40°41' W 074°02'1 2.4
2018-Apr-17 14:30N 40°42' W 074°01'4 8.0
2018-Apr-17 14:00N 40°46' W 074°00'510.5
2018-Apr-17 13:30N 40°41' W 074°02'0 0.0
2018-Apr-16 00:44N 40°40' W 074°01'0 0.1
2018-Apr-16 00:30N 40°40' W 074°01'2 4.1
2018-Apr-16 00:00N 40°42' W 074°00'2 4.3
2018-Apr-15 23:30N 40°41' W 074°03'2 4.2
2018-Apr-15 22:59N 40°42' W 074°00'0 0.0
2018-Apr-15 22:30N 40°42' W 074°00'0 0.0
2018-Apr-15 22:00N 40°42' W 074°00'2 4.2
2018-Apr-15 21:31N 40°41' W 074°03'2 4.0
2018-Apr-15 21:00N 40°42' W 074°00'0 0.4
2018-Apr-15 20:30N 40°42' W 073°60'1 2.8
2018-Apr-15 20:01N 40°43' W 074°01'1 2.4
2018-Apr-15 19:31N 40°42' W 074°00'2 4.2
2018-Apr-15 19:01N 40°41' W 074°03'2 4.2
2018-Apr-15 18:30N 40°42' W 074°00'0 0.2
2018-Apr-15 18:00N 40°42' W 074°00'0 0.4
2018-Apr-15 17:30N 40°42' W 074°00'2 3.2
2018-Apr-15 17:00N 40°43' W 074°02'1 2.8
2018-Apr-15 16:30N 40°42' W 074°00'2 4.1
2018-Apr-15 16:00N 40°41' W 074°03'2 4.1
2018-Apr-15 15:30N 40°42' W 074°00'0 0.0
2018-Apr-15 15:00N 40°42' W 074°00'2 4.4
2018-Apr-15 14:30N 40°41' W 074°03'2 4.4
2018-Apr-15 14:00N 40°42' W 074°00'2 4.1
2018-Apr-15 13:30N 40°40' W 074°01'0 0.0
2018-Apr-15 13:01N 40°40' W 074°01'0 0.0
2018-Apr-15 00:34N 40°40' W 074°01'0 0.0
2018-Apr-15 00:30N 40°40' W 074°01'2 4.1
2018-Apr-15 00:00N 40°42' W 074°00'1 3.0
2018-Apr-14 23:30N 40°42' W 074°02'1 3.0
2018-Apr-14 23:00N 40°42' W 074°00'0 0.1
2018-Apr-14 22:30N 40°42' W 074°00'0 0.1
2018-Apr-14 22:00N 40°42' W 074°00'1 2.8
2018-Apr-14 21:30N 40°42' W 074°02'1 2.7
2018-Apr-14 21:00N 40°42' W 074°00'2 4.0
2018-Apr-14 20:30N 40°41' W 074°02'1 2.4
2018-Apr-14 19:59N 40°42' W 074°01'1 1.6
2018-Apr-14 19:30N 40°42' W 074°00'1 2.9
2018-Apr-14 19:00N 40°42' W 074°02'2 3.0
2018-Apr-14 18:29N 40°42' W 074°00'0 0.1
2018-Apr-14 18:00N 40°42' W 074°00'2 4.2
2018-Apr-14 17:31N 40°41' W 074°03'1 2.8
2018-Apr-14 17:00N 40°42' W 074°01'1 1.4
2018-Apr-14 16:30N 40°42' W 074°00'1 2.6
2018-Apr-14 16:00N 40°43' W 074°02'1 2.5
2018-Apr-14 15:30N 40°42' W 074°00'0 0.0
2018-Apr-14 15:00N 40°42' W 074°00'1 2.6
2018-Apr-14 14:30N 40°42' W 074°02'1 2.6
2018-Apr-14 14:00N 40°42' W 074°00'2 4.1
2018-Apr-14 13:30N 40°40' W 074°01'0 0.0
2018-Apr-14 13:00N 40°40' W 074°01'0 0.0
2018-Apr-14 00:21N 40°40' W 074°01'2 5.9
2018-Apr-14 00:00N 40°42' W 074°00'1 2.6
2018-Apr-13 23:30N 40°43' W 074°02'1 2.6
2018-Apr-13 23:00N 40°42' W 074°00'0 0.0
2018-Apr-13 22:30N 40°42' W 074°00'0 0.1
2018-Apr-13 22:00N 40°42' W 074°00'1 2.7
2018-Apr-13 21:30N 40°42' W 074°02'1 2.6
2018-Apr-13 21:00N 40°42' W 074°00'2 4.1
2018-Apr-13 20:30N 40°41' W 074°02'2 4.2
2018-Apr-13 20:00N 40°42' W 073°60'0 0.2
2018-Apr-13 19:30N 40°42' W 074°00'1 2.9
2018-Apr-13 19:00N 40°42' W 074°02'1 2.8
2018-Apr-13 18:30N 40°42' W 074°00'0 0.2
2018-Apr-13 18:00N 40°42' W 074°00'2 3.8
2018-Apr-13 17:30N 40°41' W 074°02'1 2.2
2018-Apr-13 17:00N 40°42' W 074°01'1 1.6
2018-Apr-13 16:30N 40°42' W 074°00'2 4.3
2018-Apr-13 16:00N 40°41' W 074°03'2 4.4
2018-Apr-13 15:30N 40°42' W 074°00'0 0.2
2018-Apr-13 15:01N 40°42' W 074°00'2 3.7
2018-Apr-13 14:30N 40°42' W 074°02'2 3.6
2018-Apr-13 14:00N 40°42' W 074°00'0 0.0
2018-Apr-13 13:30N 40°42' W 074°00'2 0.2
2018-Apr-13 00:21N 40°40' W 074°01'2 6.0
2018-Apr-13 00:00N 40°42' W 074°00'1 2.8
2018-Apr-12 23:30N 40°42' W 074°02'1 2.8
2018-Apr-12 23:00N 40°42' W 074°00'0 0.0
2018-Apr-12 22:30N 40°42' W 074°00'0 0.0
2018-Apr-12 22:00N 40°42' W 074°00'2 3.2
2018-Apr-12 21:31N 40°42' W 074°02'2 3.1
2018-Apr-12 21:00N 40°42' W 074°00'1 2.8
2018-Apr-12 20:31N 40°42' W 074°02'1 1.3
2018-Apr-12 20:00N 40°42' W 074°01'1 1.5
2018-Apr-12 19:30N 40°42' W 074°00'1 2.6
2018-Apr-12 19:00N 40°42' W 074°02'1 2.6
2018-Apr-12 18:30N 40°42' W 074°00'0 0.0
2018-Apr-12 18:00N 40°42' W 074°00'1 2.8
2018-Apr-12 17:30N 40°42' W 074°02'1 1.2
2018-Apr-12 17:00N 40°42' W 074°01'1 1.7
2018-Apr-12 16:30N 40°42' W 074°00'  

Dump ship's entire track history